sensor_id;sensor_type;location;lat;lon;timestamp;temperature;humidity
9482;DHT22;4779;48.062;11.672;2023-08-17T00:00:53;20.90;99.90
9482;DHT22;4779;48.062;11.672;2023-08-17T00:03:20;20.90;99.90
9482;DHT22;4779;48.062;11.672;2023-08-17T00:05:47;20.90;99.90
9482;DHT22;4779;48.062;11.672;2023-08-17T00:08:14;20.80;99.90
9482;DHT22;4779;48.062;11.672;2023-08-17T00:10:42;20.80;99.90
9482;DHT22;4779;48.062;11.672;2023-08-17T00:13:09;20.70;99.90
9482;DHT22;4779;48.062;11.672;2023-08-17T00:15:37;20.70;99.90
9482;DHT22;4779;48.062;11.672;2023-08-17T00:18:04;20.70;99.90
9482;DHT22;4779;48.062;11.672;2023-08-17T00:20:31;20.70;99.90
9482;DHT22;4779;48.062;11.672;2023-08-17T00:22:58;20.60;99.90
9482;DHT22;4779;48.062;11.672;2023-08-17T00:25:25;20.70;99.90
9482;DHT22;4779;48.062;11.672;2023-08-17T00:27:53;20.60;99.90
9482;DHT22;4779;48.062;11.672;2023-08-17T00:30:20;20.60;99.90
9482;DHT22;4779;48.062;11.672;2023-08-17T00:32:47;20.70;99.90
9482;DHT22;4779;48.062;11.672;2023-08-17T00:35:14;20.60;99.90
9482;DHT22;4779;48.062;11.672;2023-08-17T00:37:41;20.60;99.90
9482;DHT22;4779;48.062;11.672;2023-08-17T00:40:08;20.50;99.90
9482;DHT22;4779;48.062;11.672;2023-08-17T00:42:35;20.50;99.90
9482;DHT22;4779;48.062;11.672;2023-08-17T00:45:04;20.50;99.90
9482;DHT22;4779;48.062;11.672;2023-08-17T00:47:32;20.40;99.90
9482;DHT22;4779;48.062;11.672;2023-08-17T00:49:59;20.30;99.90
9482;DHT22;4779;48.062;11.672;2023-08-17T00:52:26;20.30;99.90
9482;DHT22;4779;48.062;11.672;2023-08-17T00:54:54;20.40;99.90
9482;DHT22;4779;48.062;11.672;2023-08-17T00:57:22;20.40;99.90
9482;DHT22;4779;48.062;11.672;2023-08-17T00:59:50;20.40;99.90
9482;DHT22;4779;48.062;11.672;2023-08-17T01:02:19;20.30;99.90
9482;DHT22;4779;48.062;11.672;2023-08-17T01:04:46;20.30;99.90
9482;DHT22;4779;48.062;11.672;2023-08-17T01:07:13;20.40;99.90
9482;DHT22;4779;48.062;11.672;2023-08-17T01:09:39;20.30;99.90
9482;DHT22;4779;48.062;11.672;2023-08-17T01:12:13;20.30;99.90
9482;DHT22;4779;48.062;11.672;2023-08-17T01:14:49;20.30;99.90
9482;DHT22;4779;48.062;11.672;2023-08-17T01:17:23;20.30;99.90
9482;DHT22;4779;48.062;11.672;2023-08-17T01:19:52;20.30;99.90
9482;DHT22;4779;48.062;11.672;2023-08-17T01:22:21;20.30;99.90
9482;DHT22;4779;48.062;11.672;2023-08-17T01:24:50;20.30;99.90
9482;DHT22;4779;48.062;11.672;2023-08-17T01:27:22;20.30;99.90
9482;DHT22;4779;48.062;11.672;2023-08-17T01:29:50;20.20;99.90
9482;DHT22;4779;48.062;11.672;2023-08-17T01:32:24;20.20;99.90
9482;DHT22;4779;48.062;11.672;2023-08-17T01:34:58;20.20;99.90
9482;DHT22;4779;48.062;11.672;2023-08-17T01:37:28;20.10;99.90
9482;DHT22;4779;48.062;11.672;2023-08-17T01:39:59;20.20;99.90
9482;DHT22;4779;48.062;11.672;2023-08-17T01:42:26;20.20;99.90
9482;DHT22;4779;48.062;11.672;2023-08-17T01:44:54;20.20;99.90
9482;DHT22;4779;48.062;11.672;2023-08-17T01:47:21;20.20;99.90
9482;DHT22;4779;48.062;11.672;2023-08-17T01:49:48;20.10;99.90
9482;DHT22;4779;48.062;11.672;2023-08-17T01:52:15;20.10;99.90
9482;DHT22;4779;48.062;11.672;2023-08-17T01:54:42;20.10;99.90
9482;DHT22;4779;48.062;11.672;2023-08-17T01:57:10;20.10;99.90
9482;DHT22;4779;48.062;11.672;2023-08-17T01:59:37;20.00;99.90
9482;DHT22;4779;48.062;11.672;2023-08-17T02:02:04;20.10;99.90
9482;DHT22;4779;48.062;11.672;2023-08-17T02:04:30;20.00;99.90
9482;DHT22;4779;48.062;11.672;2023-08-17T02:06:57;20.00;99.90
9482;DHT22;4779;48.062;11.672;2023-08-17T02:09:24;20.00;99.90
9482;DHT22;4779;48.062;11.672;2023-08-17T02:11:51;19.90;99.90
9482;DHT22;4779;48.062;11.672;2023-08-17T02:14:19;19.90;99.90
9482;DHT22;4779;48.062;11.672;2023-08-17T02:16:46;19.80;99.90
9482;DHT22;4779;48.062;11.672;2023-08-17T02:19:13;19.80;99.90
9482;DHT22;4779;48.062;11.672;2023-08-17T02:21:40;19.80;99.90
9482;DHT22;4779;48.062;11.672;2023-08-17T02:24:07;19.70;99.90
9482;DHT22;4779;48.062;11.672;2023-08-17T02:26:34;19.70;99.90
9482;DHT22;4779;48.062;11.672;2023-08-17T02:29:00;19.80;99.90
9482;DHT22;4779;48.062;11.672;2023-08-17T02:31:29;19.80;99.90
9482;DHT22;4779;48.062;11.672;2023-08-17T02:33:56;19.80;99.90
9482;DHT22;4779;48.062;11.672;2023-08-17T02:36:26;19.80;99.90
9482;DHT22;4779;48.062;11.672;2023-08-17T02:38:53;19.80;99.90
9482;DHT22;4779;48.062;11.672;2023-08-17T02:41:20;19.80;99.90
9482;DHT22;4779;48.062;11.672;2023-08-17T02:43:46;19.80;99.90
9482;DHT22;4779;48.062;11.672;2023-08-17T02:46:14;19.80;99.90
9482;DHT22;4779;48.062;11.672;2023-08-17T02:48:42;19.80;99.90
9482;DHT22;4779;48.062;11.672;2023-08-17T02:51:09;19.80;99.90
9482;DHT22;4779;48.062;11.672;2023-08-17T02:53:36;19.70;99.90
9482;DHT22;4779;48.062;11.672;2023-08-17T02:56:03;19.70;99.90
9482;DHT22;4779;48.062;11.672;2023-08-17T02:58:29;19.70;99.90
9482;DHT22;4779;48.062;11.672;2023-08-17T03:00:56;19.70;99.90
9482;DHT22;4779;48.062;11.672;2023-08-17T03:03:24;19.70;99.90
9482;DHT22;4779;48.062;11.672;2023-08-17T03:05:52;19.80;99.90
9482;DHT22;4779;48.062;11.672;2023-08-17T03:08:19;19.70;99.90
9482;DHT22;4779;48.062;11.672;2023-08-17T03:10:46;19.70;99.90
9482;DHT22;4779;48.062;11.672;2023-08-17T03:13:13;19.70;99.90
9482;DHT22;4779;48.062;11.672;2023-08-17T03:15:40;19.80;99.90
9482;DHT22;4779;48.062;11.672;2023-08-17T03:18:07;19.70;99.90
9482;DHT22;4779;48.062;11.672;2023-08-17T03:20:34;19.70;99.90
9482;DHT22;4779;48.062;11.672;2023-08-17T03:23:03;19.70;99.90
9482;DHT22;4779;48.062;11.672;2023-08-17T03:25:31;19.70;99.90
9482;DHT22;4779;48.062;11.672;2023-08-17T03:27:58;19.80;99.90
9482;DHT22;4779;48.062;11.672;2023-08-17T03:30:25;19.70;99.90
9482;DHT22;4779;48.062;11.672;2023-08-17T03:32:52;19.70;99.90
9482;DHT22;4779;48.062;11.672;2023-08-17T03:35:19;19.70;99.90
9482;DHT22;4779;48.062;11.672;2023-08-17T03:37:46;19.70;99.90
9482;DHT22;4779;48.062;11.672;2023-08-17T03:40:14;19.70;99.90
9482;DHT22;4779;48.062;11.672;2023-08-17T03:42:41;19.60;99.90
9482;DHT22;4779;48.062;11.672;2023-08-17T03:45:08;19.60;99.90
9482;DHT22;4779;48.062;11.672;2023-08-17T03:47:35;19.60;99.90
9482;DHT22;4779;48.062;11.672;2023-08-17T03:50:02;19.60;99.90
9482;DHT22;4779;48.062;11.672;2023-08-17T03:52:29;19.60;99.90
9482;DHT22;4779;48.062;11.672;2023-08-17T03:54:56;19.60;99.90
9482;DHT22;4779;48.062;11.672;2023-08-17T03:57:24;19.60;99.90
9482;DHT22;4779;48.062;11.672;2023-08-17T03:59:51;19.60;99.90
9482;DHT22;4779;48.062;11.672;2023-08-17T04:02:18;19.60;99.90
9482;DHT22;4779;48.062;11.672;2023-08-17T04:04:45;19.50;99.90
9482;DHT22;4779;48.062;11.672;2023-08-17T04:07:12;19.50;99.90
9482;DHT22;4779;48.062;11.672;2023-08-17T04:09:43;19.50;99.90
9482;DHT22;4779;48.062;11.672;2023-08-17T04:12:10;19.50;99.90
9482;DHT22;4779;48.062;11.672;2023-08-17T04:14:38;19.50;99.90
9482;DHT22;4779;48.062;11.672;2023-08-17T04:17:05;19.50;99.90
9482;DHT22;4779;48.062;11.672;2023-08-17T04:19:32;19.50;99.90
9482;DHT22;4779;48.062;11.672;2023-08-17T04:21:59;19.50;99.90
9482;DHT22;4779;48.062;11.672;2023-08-17T04:24:26;19.50;99.90
9482;DHT22;4779;48.062;11.672;2023-08-17T04:26:52;19.50;99.90
9482;DHT22;4779;48.062;11.672;2023-08-17T04:29:19;19.50;99.90
9482;DHT22;4779;48.062;11.672;2023-08-17T04:31:48;19.50;99.90
9482;DHT22;4779;48.062;11.672;2023-08-17T04:34:15;19.40;99.90
9482;DHT22;4779;48.062;11.672;2023-08-17T04:36:41;19.40;99.90
9482;DHT22;4779;48.062;11.672;2023-08-17T04:39:08;19.40;99.90
9482;DHT22;4779;48.062;11.672;2023-08-17T04:41:35;19.40;99.90
9482;DHT22;4779;48.062;11.672;2023-08-17T04:44:03;19.40;99.90
9482;DHT22;4779;48.062;11.672;2023-08-17T04:46:29;19.50;99.90
9482;DHT22;4779;48.062;11.672;2023-08-17T04:48:58;19.40;99.90
9482;DHT22;4779;48.062;11.672;2023-08-17T04:51:24;19.50;99.90
9482;DHT22;4779;48.062;11.672;2023-08-17T04:53:51;19.40;99.90
9482;DHT22;4779;48.062;11.672;2023-08-17T04:56:18;19.30;99.90
9482;DHT22;4779;48.062;11.672;2023-08-17T04:58:45;19.30;99.90
9482;DHT22;4779;48.062;11.672;2023-08-17T05:01:12;19.40;99.90
9482;DHT22;4779;48.062;11.672;2023-08-17T05:03:39;19.50;99.90
9482;DHT22;4779;48.062;11.672;2023-08-17T05:06:07;19.50;99.90
9482;DHT22;4779;48.062;11.672;2023-08-17T05:08:34;19.50;99.90
9482;DHT22;4779;48.062;11.672;2023-08-17T05:11:01;19.50;99.90
9482;DHT22;4779;48.062;11.672;2023-08-17T05:13:27;19.50;99.90
9482;DHT22;4779;48.062;11.672;2023-08-17T05:15:54;19.50;99.90
9482;DHT22;4779;48.062;11.672;2023-08-17T05:18:21;19.50;99.90
9482;DHT22;4779;48.062;11.672;2023-08-17T05:20:48;19.50;99.90
9482;DHT22;4779;48.062;11.672;2023-08-17T05:23:16;19.60;99.90
9482;DHT22;4779;48.062;11.672;2023-08-17T05:25:46;19.70;99.90
9482;DHT22;4779;48.062;11.672;2023-08-17T05:28:22;20.00;99.90
9482;DHT22;4779;48.062;11.672;2023-08-17T05:30:49;20.20;99.90
9482;DHT22;4779;48.062;11.672;2023-08-17T05:33:16;20.30;99.90
9482;DHT22;4779;48.062;11.672;2023-08-17T05:35:43;20.40;99.90
9482;DHT22;4779;48.062;11.672;2023-08-17T05:38:10;20.50;99.90
9482;DHT22;4779;48.062;11.672;2023-08-17T05:40:38;20.60;99.90
9482;DHT22;4779;48.062;11.672;2023-08-17T05:43:05;20.50;99.90
9482;DHT22;4779;48.062;11.672;2023-08-17T05:45:32;20.50;99.90
9482;DHT22;4779;48.062;11.672;2023-08-17T05:48:02;20.50;99.90
9482;DHT22;4779;48.062;11.672;2023-08-17T05:50:29;20.50;99.90
9482;DHT22;4779;48.062;11.672;2023-08-17T05:52:56;20.60;99.90
9482;DHT22;4779;48.062;11.672;2023-08-17T05:55:23;20.70;99.90
9482;DHT22;4779;48.062;11.672;2023-08-17T05:57:51;20.70;99.90
9482;DHT22;4779;48.062;11.672;2023-08-17T06:00:18;20.70;99.90
9482;DHT22;4779;48.062;11.672;2023-08-17T06:02:45;20.80;99.90
9482;DHT22;4779;48.062;11.672;2023-08-17T06:05:15;20.80;99.90
9482;DHT22;4779;48.062;11.672;2023-08-17T06:07:42;20.80;99.90
9482;DHT22;4779;48.062;11.672;2023-08-17T06:10:10;20.90;99.90
9482;DHT22;4779;48.062;11.672;2023-08-17T06:12:37;20.90;99.90
9482;DHT22;4779;48.062;11.672;2023-08-17T06:15:06;21.00;99.90
9482;DHT22;4779;48.062;11.672;2023-08-17T06:17:33;21.10;99.90
9482;DHT22;4779;48.062;11.672;2023-08-17T06:20:00;21.20;99.90
9482;DHT22;4779;48.062;11.672;2023-08-17T06:22:28;21.40;99.90
9482;DHT22;4779;48.062;11.672;2023-08-17T06:24:55;21.60;99.90
9482;DHT22;4779;48.062;11.672;2023-08-17T06:27:22;21.60;99.90
9482;DHT22;4779;48.062;11.672;2023-08-17T06:29:49;21.70;99.90
9482;DHT22;4779;48.062;11.672;2023-08-17T06:32:17;21.90;99.90
9482;DHT22;4779;48.062;11.672;2023-08-17T06:34:44;22.10;99.90
9482;DHT22;4779;48.062;11.672;2023-08-17T06:37:12;22.20;99.90
9482;DHT22;4779;48.062;11.672;2023-08-17T06:39:38;22.30;99.90
9482;DHT22;4779;48.062;11.672;2023-08-17T06:42:05;22.40;99.90
9482;DHT22;4779;48.062;11.672;2023-08-17T06:44:32;22.50;99.90
9482;DHT22;4779;48.062;11.672;2023-08-17T06:46:59;22.50;99.90
9482;DHT22;4779;48.062;11.672;2023-08-17T06:49:27;22.60;99.90
9482;DHT22;4779;48.062;11.672;2023-08-17T06:51:54;22.70;99.90
9482;DHT22;4779;48.062;11.672;2023-08-17T06:54:21;22.80;99.90
9482;DHT22;4779;48.062;11.672;2023-08-17T06:56:48;22.90;99.90
9482;DHT22;4779;48.062;11.672;2023-08-17T06:59:15;22.90;99.90
9482;DHT22;4779;48.062;11.672;2023-08-17T07:01:42;22.80;99.90
9482;DHT22;4779;48.062;11.672;2023-08-17T07:04:09;22.90;99.90
9482;DHT22;4779;48.062;11.672;2023-08-17T07:06:37;22.90;99.90
9482;DHT22;4779;48.062;11.672;2023-08-17T07:09:04;22.90;99.90
9482;DHT22;4779;48.062;11.672;2023-08-17T07:11:31;22.90;99.90
9482;DHT22;4779;48.062;11.672;2023-08-17T07:13:58;23.10;99.90
9482;DHT22;4779;48.062;11.672;2023-08-17T07:16:25;23.20;99.90
9482;DHT22;4779;48.062;11.672;2023-08-17T07:18:52;23.30;99.90
9482;DHT22;4779;48.062;11.672;2023-08-17T07:21:19;23.40;99.90
9482;DHT22;4779;48.062;11.672;2023-08-17T07:23:47;23.50;99.90
9482;DHT22;4779;48.062;11.672;2023-08-17T07:26:14;23.50;99.90
9482;DHT22;4779;48.062;11.672;2023-08-17T07:28:41;23.70;99.90
9482;DHT22;4779;48.062;11.672;2023-08-17T07:31:08;23.80;99.90
9482;DHT22;4779;48.062;11.672;2023-08-17T07:33:36;23.90;99.90
9482;DHT22;4779;48.062;11.672;2023-08-17T07:36:05;23.90;99.90
9482;DHT22;4779;48.062;11.672;2023-08-17T07:38:33;24.00;99.90
9482;DHT22;4779;48.062;11.672;2023-08-17T07:41:02;24.00;99.90
9482;DHT22;4779;48.062;11.672;2023-08-17T07:43:29;24.00;99.90
9482;DHT22;4779;48.062;11.672;2023-08-17T07:45:56;23.90;99.90
9482;DHT22;4779;48.062;11.672;2023-08-17T07:48:23;23.90;99.90
9482;DHT22;4779;48.062;11.672;2023-08-17T07:50:51;23.90;99.90
9482;DHT22;4779;48.062;11.672;2023-08-17T07:53:18;23.80;99.90
9482;DHT22;4779;48.062;11.672;2023-08-17T07:55:45;23.80;99.90
9482;DHT22;4779;48.062;11.672;2023-08-17T07:58:13;23.90;99.90
9482;DHT22;4779;48.062;11.672;2023-08-17T08:00:40;23.90;99.90
9482;DHT22;4779;48.062;11.672;2023-08-17T08:03:07;23.90;99.90
9482;DHT22;4779;48.062;11.672;2023-08-17T08:05:34;23.90;99.90
9482;DHT22;4779;48.062;11.672;2023-08-17T08:08:01;24.00;99.90
9482;DHT22;4779;48.062;11.672;2023-08-17T08:10:28;24.00;99.90
9482;DHT22;4779;48.062;11.672;2023-08-17T08:12:55;24.00;99.90
9482;DHT22;4779;48.062;11.672;2023-08-17T08:15:23;24.10;99.90
9482;DHT22;4779;48.062;11.672;2023-08-17T08:17:53;24.10;99.90
9482;DHT22;4779;48.062;11.672;2023-08-17T08:20:20;24.00;99.90
9482;DHT22;4779;48.062;11.672;2023-08-17T08:22:47;24.10;99.90
9482;DHT22;4779;48.062;11.672;2023-08-17T08:25:14;24.20;99.90
9482;DHT22;4779;48.062;11.672;2023-08-17T08:27:41;24.40;99.90
9482;DHT22;4779;48.062;11.672;2023-08-17T08:30:08;24.40;99.90
9482;DHT22;4779;48.062;11.672;2023-08-17T08:32:37;24.50;99.90
9482;DHT22;4779;48.062;11.672;2023-08-17T08:35:04;24.50;99.90
9482;DHT22;4779;48.062;11.672;2023-08-17T08:37:31;24.50;99.90
9482;DHT22;4779;48.062;11.672;2023-08-17T08:39:58;24.60;99.90
9482;DHT22;4779;48.062;11.672;2023-08-17T08:42:25;24.60;99.90
9482;DHT22;4779;48.062;11.672;2023-08-17T08:44:52;24.60;99.90
9482;DHT22;4779;48.062;11.672;2023-08-17T08:47:21;24.70;99.90
9482;DHT22;4779;48.062;11.672;2023-08-17T08:49:59;24.80;99.90
9482;DHT22;4779;48.062;11.672;2023-08-17T08:52:33;25.00;99.90
9482;DHT22;4779;48.062;11.672;2023-08-17T08:55:06;25.10;99.90
9482;DHT22;4779;48.062;11.672;2023-08-17T08:57:36;25.30;99.90
9482;DHT22;4779;48.062;11.672;2023-08-17T09:00:04;25.50;99.90
9482;DHT22;4779;48.062;11.672;2023-08-17T09:02:33;25.60;99.90
9482;DHT22;4779;48.062;11.672;2023-08-17T09:05:02;25.80;99.90
9482;DHT22;4779;48.062;11.672;2023-08-17T09:07:29;26.10;99.90
9482;DHT22;4779;48.062;11.672;2023-08-17T09:09:56;26.50;99.90
9482;DHT22;4779;48.062;11.672;2023-08-17T09:12:25;26.90;99.90
9482;DHT22;4779;48.062;11.672;2023-08-17T09:14:52;27.10;99.90
9482;DHT22;4779;48.062;11.672;2023-08-17T09:17:23;27.50;99.90
9482;DHT22;4779;48.062;11.672;2023-08-17T09:19:50;27.80;99.90
9482;DHT22;4779;48.062;11.672;2023-08-17T09:22:23;28.10;99.90
9482;DHT22;4779;48.062;11.672;2023-08-17T09:24:51;28.50;99.90
9482;DHT22;4779;48.062;11.672;2023-08-17T09:27:18;28.80;99.90
9482;DHT22;4779;48.062;11.672;2023-08-17T09:29:45;29.10;99.10
9482;DHT22;4779;48.062;11.672;2023-08-17T09:32:14;29.30;97.70
9482;DHT22;4779;48.062;11.672;2023-08-17T09:34:42;29.40;96.80
9482;DHT22;4779;48.062;11.672;2023-08-17T09:37:09;29.60;96.10
9482;DHT22;4779;48.062;11.672;2023-08-17T09:39:39;29.60;95.70
9482;DHT22;4779;48.062;11.672;2023-08-17T09:42:06;29.70;96.50
9482;DHT22;4779;48.062;11.672;2023-08-17T09:44:33;29.90;98.60
9482;DHT22;4779;48.062;11.672;2023-08-17T09:47:01;30.20;97.30
9482;DHT22;4779;48.062;11.672;2023-08-17T09:49:31;30.50;98.10
9482;DHT22;4779;48.062;11.672;2023-08-17T09:52:00;30.80;96.60
9482;DHT22;4779;48.062;11.672;2023-08-17T09:54:30;31.00;96.50
9482;DHT22;4779;48.062;11.672;2023-08-17T09:56:59;31.00;96.60
9482;DHT22;4779;48.062;11.672;2023-08-17T09:59:26;31.10;96.50
9482;DHT22;4779;48.062;11.672;2023-08-17T10:01:53;31.20;95.20
9482;DHT22;4779;48.062;11.672;2023-08-17T10:04:21;31.30;93.60
9482;DHT22;4779;48.062;11.672;2023-08-17T10:06:52;31.60;95.60
9482;DHT22;4779;48.062;11.672;2023-08-17T10:09:24;31.80;93.50
9482;DHT22;4779;48.062;11.672;2023-08-17T10:11:54;32.10;93.70
9482;DHT22;4779;48.062;11.672;2023-08-17T10:14:29;32.30;92.60
9482;DHT22;4779;48.062;11.672;2023-08-17T10:17:03;32.50;92.70
9482;DHT22;4779;48.062;11.672;2023-08-17T10:19:37;32.70;93.30
9482;DHT22;4779;48.062;11.672;2023-08-17T10:22:15;33.00;92.40
9482;DHT22;4779;48.062;11.672;2023-08-17T10:24:44;33.20;91.20
9482;DHT22;4779;48.062;11.672;2023-08-17T10:27:17;33.40;90.20
9482;DHT22;4779;48.062;11.672;2023-08-17T10:29:47;33.50;90.20
9482;DHT22;4779;48.062;11.672;2023-08-17T10:32:15;33.70;88.90
9482;DHT22;4779;48.062;11.672;2023-08-17T10:34:42;33.80;88.20
9482;DHT22;4779;48.062;11.672;2023-08-17T10:37:12;33.70;89.90
9482;DHT22;4779;48.062;11.672;2023-08-17T10:39:45;33.70;90.40
9482;DHT22;4779;48.062;11.672;2023-08-17T10:42:13;33.50;87.50
9482;DHT22;4779;48.062;11.672;2023-08-17T10:44:47;33.40;85.80
9482;DHT22;4779;48.062;11.672;2023-08-17T10:47:24;33.30;87.10
9482;DHT22;4779;48.062;11.672;2023-08-17T10:49:51;33.50;85.30
9482;DHT22;4779;48.062;11.672;2023-08-17T10:52:29;33.30;83.90
9482;DHT22;4779;48.062;11.672;2023-08-17T10:54:59;33.30;83.10
9482;DHT22;4779;48.062;11.672;2023-08-17T10:57:31;33.60;84.60
9482;DHT22;4779;48.062;11.672;2023-08-17T11:00:22;33.70;81.30
9482;DHT22;4779;48.062;11.672;2023-08-17T11:02:54;33.50;81.20
9482;DHT22;4779;48.062;11.672;2023-08-17T11:05:38;33.00;82.00
9482;DHT22;4779;48.062;11.672;2023-08-17T11:08:05;32.60;86.20
9482;DHT22;4779;48.062;11.672;2023-08-17T11:10:33;32.30;91.00
9482;DHT22;4779;48.062;11.672;2023-08-17T11:13:00;32.00;90.80
9482;DHT22;4779;48.062;11.672;2023-08-17T11:15:36;31.50;85.60
9482;DHT22;4779;48.062;11.672;2023-08-17T11:18:09;31.20;85.90
9482;DHT22;4779;48.062;11.672;2023-08-17T11:20:38;31.00;85.90
9482;DHT22;4779;48.062;11.672;2023-08-17T11:23:08;30.70;92.00
9482;DHT22;4779;48.062;11.672;2023-08-17T11:25:37;30.50;92.40
9482;DHT22;4779;48.062;11.672;2023-08-17T11:28:06;30.20;91.30
9482;DHT22;4779;48.062;11.672;2023-08-17T11:30:34;30.20;93.20
9482;DHT22;4779;48.062;11.672;2023-08-17T11:33:03;30.50;92.20
9482;DHT22;4779;48.062;11.672;2023-08-17T11:35:31;30.90;92.50
9482;DHT22;4779;48.062;11.672;2023-08-17T11:37:58;31.50;92.90
9482;DHT22;4779;48.062;11.672;2023-08-17T11:40:25;32.00;87.00
9482;DHT22;4779;48.062;11.672;2023-08-17T11:42:52;32.60;90.60
9482;DHT22;4779;48.062;11.672;2023-08-17T11:45:19;33.20;90.70
9482;DHT22;4779;48.062;11.672;2023-08-17T11:47:47;33.40;88.50
9482;DHT22;4779;48.062;11.672;2023-08-17T11:50:14;33.80;89.10
9482;DHT22;4779;48.062;11.672;2023-08-17T11:52:42;33.90;89.60
9482;DHT22;4779;48.062;11.672;2023-08-17T11:55:09;34.10;90.10
9482;DHT22;4779;48.062;11.672;2023-08-17T11:57:37;34.40;86.70
9482;DHT22;4779;48.062;11.672;2023-08-17T12:00:05;34.40;85.10
9482;DHT22;4779;48.062;11.672;2023-08-17T12:02:32;34.00;85.40
9482;DHT22;4779;48.062;11.672;2023-08-17T12:05:04;33.70;84.80
9482;DHT22;4779;48.062;11.672;2023-08-17T12:07:32;33.30;87.70
9482;DHT22;4779;48.062;11.672;2023-08-17T12:10:02;33.00;90.00
9482;DHT22;4779;48.062;11.672;2023-08-17T12:12:30;33.00;89.30
9482;DHT22;4779;48.062;11.672;2023-08-17T12:14:57;33.30;89.40
9482;DHT22;4779;48.062;11.672;2023-08-17T12:17:24;33.40;90.80
9482;DHT22;4779;48.062;11.672;2023-08-17T12:19:54;33.50;90.60
9482;DHT22;4779;48.062;11.672;2023-08-17T12:22:24;33.70;91.30
9482;DHT22;4779;48.062;11.672;2023-08-17T12:24:52;33.80;89.40
9482;DHT22;4779;48.062;11.672;2023-08-17T12:27:23;33.70;88.90
9482;DHT22;4779;48.062;11.672;2023-08-17T12:29:51;33.50;89.90
9482;DHT22;4779;48.062;11.672;2023-08-17T12:32:19;33.20;89.70
9482;DHT22;4779;48.062;11.672;2023-08-17T12:34:46;33.20;90.00
9482;DHT22;4779;48.062;11.672;2023-08-17T12:37:18;33.30;89.20
9482;DHT22;4779;48.062;11.672;2023-08-17T12:39:45;33.30;89.50
9482;DHT22;4779;48.062;11.672;2023-08-17T12:42:13;33.40;89.70
9482;DHT22;4779;48.062;11.672;2023-08-17T12:44:41;33.20;89.20
9482;DHT22;4779;48.062;11.672;2023-08-17T12:47:08;32.90;89.50
9482;DHT22;4779;48.062;11.672;2023-08-17T12:49:35;32.80;90.30
9482;DHT22;4779;48.062;11.672;2023-08-17T12:52:03;32.70;88.30
9482;DHT22;4779;48.062;11.672;2023-08-17T12:54:30;32.90;89.00
9482;DHT22;4779;48.062;11.672;2023-08-17T12:56:56;33.10;87.70
9482;DHT22;4779;48.062;11.672;2023-08-17T12:59:23;33.50;88.00
9482;DHT22;4779;48.062;11.672;2023-08-17T13:01:53;33.80;87.70
9482;DHT22;4779;48.062;11.672;2023-08-17T13:04:19;33.80;85.70
9482;DHT22;4779;48.062;11.672;2023-08-17T13:06:46;33.90;85.30
9482;DHT22;4779;48.062;11.672;2023-08-17T13:09:13;33.90;82.10
9482;DHT22;4779;48.062;11.672;2023-08-17T13:11:41;33.90;81.70
9482;DHT22;4779;48.062;11.672;2023-08-17T13:14:08;34.10;84.00
9482;DHT22;4779;48.062;11.672;2023-08-17T13:16:35;34.20;82.80
9482;DHT22;4779;48.062;11.672;2023-08-17T13:19:03;34.20;83.30
9482;DHT22;4779;48.062;11.672;2023-08-17T13:21:30;34.30;78.30
9482;DHT22;4779;48.062;11.672;2023-08-17T13:23:57;34.30;80.00
9482;DHT22;4779;48.062;11.672;2023-08-17T13:26:24;34.30;79.70
9482;DHT22;4779;48.062;11.672;2023-08-17T13:28:51;34.30;80.00
9482;DHT22;4779;48.062;11.672;2023-08-17T13:31:18;34.30;79.10
9482;DHT22;4779;48.062;11.672;2023-08-17T13:33:44;34.40;80.00
9482;DHT22;4779;48.062;11.672;2023-08-17T13:36:13;34.60;79.10
9482;DHT22;4779;48.062;11.672;2023-08-17T13:38:39;34.40;76.60
9482;DHT22;4779;48.062;11.672;2023-08-17T13:41:06;34.50;80.60
9482;DHT22;4779;48.062;11.672;2023-08-17T13:43:33;34.30;82.40
9482;DHT22;4779;48.062;11.672;2023-08-17T13:46:00;33.70;80.50
9482;DHT22;4779;48.062;11.672;2023-08-17T13:48:28;33.20;82.50
9482;DHT22;4779;48.062;11.672;2023-08-17T13:50:54;33.30;79.70
9482;DHT22;4779;48.062;11.672;2023-08-17T13:53:23;33.50;83.60
9482;DHT22;4779;48.062;11.672;2023-08-17T13:55:50;33.70;80.30
9482;DHT22;4779;48.062;11.672;2023-08-17T13:58:17;33.70;82.60
9482;DHT22;4779;48.062;11.672;2023-08-17T14:00:43;33.90;82.00
9482;DHT22;4779;48.062;11.672;2023-08-17T14:03:10;34.00;80.00
9482;DHT22;4779;48.062;11.672;2023-08-17T14:05:37;34.00;78.50
9482;DHT22;4779;48.062;11.672;2023-08-17T14:08:05;34.10;80.20
9482;DHT22;4779;48.062;11.672;2023-08-17T14:10:33;34.10;76.30
9482;DHT22;4779;48.062;11.672;2023-08-17T14:13:01;34.00;75.40
9482;DHT22;4779;48.062;11.672;2023-08-17T14:15:28;33.70;77.70
9482;DHT22;4779;48.062;11.672;2023-08-17T14:17:55;33.20;78.30
9482;DHT22;4779;48.062;11.672;2023-08-17T14:20:22;32.60;82.70
9482;DHT22;4779;48.062;11.672;2023-08-17T14:22:49;32.00;83.00
9482;DHT22;4779;48.062;11.672;2023-08-17T14:25:16;31.60;86.30
9482;DHT22;4779;48.062;11.672;2023-08-17T14:27:45;31.00;83.70
9482;DHT22;4779;48.062;11.672;2023-08-17T14:30:12;30.60;84.90
9482;DHT22;4779;48.062;11.672;2023-08-17T14:32:39;30.30;86.80
9482;DHT22;4779;48.062;11.672;2023-08-17T14:35:06;30.00;86.20
9482;DHT22;4779;48.062;11.672;2023-08-17T14:37:33;29.80;88.00
9482;DHT22;4779;48.062;11.672;2023-08-17T14:40:01;29.80;88.30
9482;DHT22;4779;48.062;11.672;2023-08-17T14:42:28;29.70;90.00
9482;DHT22;4779;48.062;11.672;2023-08-17T14:44:57;29.50;90.40
9482;DHT22;4779;48.062;11.672;2023-08-17T14:47:23;29.50;90.80
9482;DHT22;4779;48.062;11.672;2023-08-17T14:49:50;29.40;90.40
9482;DHT22;4779;48.062;11.672;2023-08-17T14:52:18;29.30;88.80
9482;DHT22;4779;48.062;11.672;2023-08-17T14:54:45;29.20;90.00
9482;DHT22;4779;48.062;11.672;2023-08-17T14:57:13;29.20;90.50
9482;DHT22;4779;48.062;11.672;2023-08-17T14:59:40;29.10;90.80
9482;DHT22;4779;48.062;11.672;2023-08-17T15:02:08;29.00;90.70
9482;DHT22;4779;48.062;11.672;2023-08-17T15:04:36;29.00;90.80
9482;DHT22;4779;48.062;11.672;2023-08-17T15:07:03;29.00;91.70
9482;DHT22;4779;48.062;11.672;2023-08-17T15:09:35;29.20;90.80
9482;DHT22;4779;48.062;11.672;2023-08-17T15:12:03;29.30;88.60
9482;DHT22;4779;48.062;11.672;2023-08-17T15:14:30;29.40;88.50
9482;DHT22;4779;48.062;11.672;2023-08-17T15:16:57;29.60;88.70
9482;DHT22;4779;48.062;11.672;2023-08-17T15:19:25;29.90;87.70
9482;DHT22;4779;48.062;11.672;2023-08-17T15:21:52;30.20;88.30
9482;DHT22;4779;48.062;11.672;2023-08-17T15:24:19;30.30;87.80
9482;DHT22;4779;48.062;11.672;2023-08-17T15:26:46;30.60;88.40
9482;DHT22;4779;48.062;11.672;2023-08-17T15:29:13;30.50;88.20
9482;DHT22;4779;48.062;11.672;2023-08-17T15:31:39;30.40;88.10
9482;DHT22;4779;48.062;11.672;2023-08-17T15:34:06;30.30;88.90
9482;DHT22;4779;48.062;11.672;2023-08-17T15:36:34;30.20;88.90
9482;DHT22;4779;48.062;11.672;2023-08-17T15:39:01;30.20;89.60
9482;DHT22;4779;48.062;11.672;2023-08-17T15:41:28;30.20;90.50
9482;DHT22;4779;48.062;11.672;2023-08-17T15:43:55;29.90;90.10
9482;DHT22;4779;48.062;11.672;2023-08-17T15:46:22;29.80;90.70
9482;DHT22;4779;48.062;11.672;2023-08-17T15:48:49;29.50;91.10